createdAt,value
2019-02-16T00:02:31.985Z,6.23
2019-02-16T00:05:12.512Z,9.37
2019-02-16T00:07:53.199Z,9.50
2019-02-16T00:10:33.616Z,9.67
2019-02-16T00:13:14.601Z,8.80
2019-02-16T00:15:55.161Z,5.93
2019-02-16T00:18:35.413Z,7.57
2019-02-16T00:21:16.340Z,6.20
2019-02-16T00:23:57.033Z,5.33
2019-02-16T00:26:37.647Z,5.57
2019-02-16T00:29:18.141Z,5.63
2019-02-16T00:31:59.196Z,5.93
2019-02-16T00:34:39.760Z,6.77
2019-02-16T00:37:20.045Z,7.33
2019-02-16T00:40:01.357Z,7.57
2019-02-16T00:42:30.100Z,7.97
2019-02-16T00:45:17.869Z,10.93
2019-02-16T00:48:05.732Z,13.70
2019-02-16T00:50:53.505Z,8.07
2019-02-16T00:53:41.247Z,5.27
2019-02-16T00:56:29.012Z,5.57
2019-02-16T00:59:16.752Z,7.40
2019-02-16T01:02:04.948Z,5.93
2019-02-16T01:04:52.995Z,6.10
2019-02-16T01:07:40.790Z,7.67
2019-02-16T01:10:28.537Z,5.53
2019-02-16T01:13:16.305Z,5.23
2019-02-16T01:16:04.259Z,5.23
2019-02-16T01:18:52.041Z,4.93
2019-02-16T01:21:39.786Z,5.07
2019-02-16T01:24:27.561Z,5.10
2019-02-16T01:27:15.500Z,14.27
2019-02-16T01:30:04.017Z,6.93
2019-02-16T01:32:51.772Z,5.23
2019-02-16T01:35:39.790Z,6.03
2019-02-16T01:38:20.204Z,4.27
2019-02-16T01:41:00.585Z,5.63
2019-02-16T01:43:41.676Z,6.53
2019-02-16T01:46:22.381Z,5.93
2019-02-16T01:49:03.269Z,7.97
2019-02-16T01:51:43.730Z,8.37
2019-02-16T01:54:25.160Z,4.63
2019-02-16T01:57:05.951Z,5.97
2019-02-16T01:59:46.345Z,4.80
2019-02-16T02:02:27.329Z,5.20
2019-02-16T02:05:16.330Z,5.83
2019-02-16T02:07:53.217Z,5.97
2019-02-16T02:10:34.088Z,5.20
2019-02-16T02:13:15.008Z,5.70
2019-02-16T02:15:55.595Z,3.50
2019-02-16T02:18:36.588Z,3.97
2019-02-16T02:21:17.706Z,6.37
2019-02-16T02:23:58.029Z,4.33
2019-02-16T02:26:38.493Z,4.97
2019-02-16T02:29:19.240Z,6.20
2019-02-16T02:31:59.909Z,6.37
2019-02-16T02:34:40.489Z,3.67
2019-02-16T02:37:21.234Z,5.00
2019-02-16T02:40:02.188Z,5.70
2019-02-16T02:42:42.774Z,5.43
2019-02-16T02:45:23.089Z,4.50
2019-02-16T02:48:03.305Z,5.87
2019-02-16T02:50:44.072Z,5.03
2019-02-16T02:53:31.068Z,8.77
2019-02-16T02:56:06.741Z,4.23
2019-02-16T02:58:35.158Z,4.80
2019-02-16T03:01:22.932Z,5.60
2019-02-16T03:04:10.684Z,4.90
2019-02-16T03:06:58.470Z,6.70
2019-02-16T03:09:46.291Z,5.33
2019-02-16T03:12:34.024Z,3.97
2019-02-16T03:15:22.061Z,4.63
2019-02-16T03:18:09.788Z,5.10
2019-02-16T03:20:57.570Z,6.30
2019-02-16T03:23:45.306Z,6.53
2019-02-16T03:26:53.796Z,5.67
2019-02-16T03:30:01.142Z,7.63
2019-02-16T03:33:08.267Z,5.93
2019-02-16T03:36:15.671Z,4.37
2019-02-16T03:39:23.892Z,5.60
2019-02-16T03:42:04.456Z,6.67
2019-02-16T03:44:45.473Z,4.47
2019-02-16T03:47:26.317Z,4.90
2019-02-16T03:50:07.020Z,4.30
2019-02-16T03:52:47.790Z,4.90
2019-02-16T03:55:28.600Z,3.83
2019-02-16T03:58:09.577Z,5.60
2019-02-16T04:00:50.004Z,7.17
2019-02-16T04:03:31.049Z,5.80
2019-02-16T04:05:59.464Z,3.90
2019-02-16T04:08:47.223Z,4.37
2019-02-16T04:14:43.658Z,5.13
2019-02-16T04:17:31.739Z,5.13
2019-02-16T04:20:12.121Z,3.90
2019-02-16T04:22:53.054Z,4.27
2019-02-16T04:25:33.860Z,4.57
2019-02-16T04:28:14.801Z,6.20
2019-02-16T04:30:55.780Z,4.43
2019-02-16T04:33:36.382Z,3.43
2019-02-16T04:36:17.329Z,4.53
2019-02-16T04:38:57.950Z,4.80
2019-02-16T04:41:38.542Z,6.03
2019-02-16T04:44:19.367Z,6.33
2019-02-16T04:46:59.790Z,5.83
2019-02-16T04:49:40.788Z,5.23
2019-02-16T04:52:21.557Z,4.67
2019-02-16T04:55:02.172Z,5.60
2019-02-16T04:57:42.840Z,5.97
2019-02-16T05:00:24.001Z,4.43
2019-02-16T05:03:04.765Z,4.17
2019-02-16T05:05:45.880Z,4.90
2019-02-16T05:08:26.786Z,4.90
2019-02-16T05:11:07.337Z,4.13
2019-02-16T05:13:47.933Z,4.53
2019-02-16T05:16:28.716Z,5.20
2019-02-16T05:19:09.639Z,5.40
2019-02-16T05:21:50.153Z,4.37
2019-02-16T05:24:30.614Z,6.23
2019-02-16T05:27:11.511Z,7.80
2019-02-16T05:29:52.612Z,5.60
2019-02-16T05:32:33.249Z,7.07
2019-02-16T05:35:13.922Z,7.70
2019-02-16T05:37:54.257Z,5.20
2019-02-16T05:40:35.125Z,5.43
2019-02-16T05:43:16.163Z,6.40
2019-02-16T05:45:56.844Z,5.10
2019-02-16T05:48:37.741Z,7.20
2019-02-16T05:51:18.631Z,5.53
2019-02-16T05:53:59.149Z,4.40
2019-02-16T05:56:39.997Z,5.60
2019-02-16T05:59:21.029Z,5.23
2019-02-16T06:02:01.600Z,5.63
2019-02-16T06:04:42.274Z,6.70
2019-02-16T06:07:23.103Z,6.40
2019-02-16T06:10:03.781Z,5.27
2019-02-16T06:12:44.525Z,6.97
2019-02-16T06:15:25.296Z,6.13
2019-02-16T06:18:05.852Z,7.03
2019-02-16T06:20:46.555Z,6.07
2019-02-16T06:23:14.953Z,4.73
2019-02-16T06:26:02.731Z,7.67
2019-02-16T06:28:50.758Z,6.40
2019-02-16T06:31:38.500Z,6.73
2019-02-16T06:34:26.256Z,4.97
2019-02-16T06:37:33.242Z,8.53
2019-02-16T06:40:21.261Z,6.80
2019-02-16T06:43:09.107Z,12.50
2019-02-16T06:45:49.951Z,6.87
2019-02-16T06:48:31.056Z,6.70
2019-02-16T06:51:11.989Z,6.37
2019-02-16T06:53:52.820Z,5.83
2019-02-16T06:56:38.260Z,5.27
2019-02-16T06:59:19.090Z,6.93
2019-02-16T07:02:00.108Z,5.50
2019-02-16T07:04:42.126Z,8.90
2019-02-16T07:07:22.972Z,7.17
2019-02-16T07:10:03.976Z,7.37
2019-02-16T07:12:44.360Z,6.17
2019-02-16T07:15:25.022Z,9.20
2019-02-16T07:18:07.188Z,6.50
2019-02-16T07:20:47.357Z,9.23
2019-02-16T07:23:28.351Z,6.50
2019-02-16T07:26:09.112Z,7.50
2019-02-16T07:28:49.904Z,7.00
2019-02-16T07:31:30.435Z,9.87
2019-02-16T07:34:10.880Z,8.10
2019-02-16T07:36:51.116Z,6.93
2019-02-16T07:39:19.539Z,8.00
2019-02-16T07:42:07.296Z,8.73
2019-02-16T07:44:49.538Z,14.83
2019-02-16T07:47:49.905Z,9.80
2019-02-16T07:53:56.678Z,10.27
2019-02-16T07:59:49.705Z,7.40
2019-02-16T08:05:48.036Z,6.40
2019-02-16T08:11:38.349Z,13.83
2019-02-16T08:14:24.248Z,9.07
2019-02-16T08:17:24.278Z,6.63
2019-02-16T08:23:00.616Z,9.60
2019-02-16T08:26:00.698Z,11.20
2019-02-16T08:31:39.833Z,8.47
2019-02-16T08:34:21.809Z,11.97
2019-02-16T08:37:06.828Z,7.57
2019-02-16T08:39:51.756Z,11.00
2019-02-16T08:42:51.173Z,8.70
2019-02-16T08:45:36.051Z,11.70
2019-02-16T08:48:36.327Z,12.17
2019-02-16T08:51:18.221Z,9.57
2019-02-16T08:54:18.594Z,15.07
2019-02-16T08:57:01.292Z,10.10
2019-02-16T08:59:43.208Z,10.70
2019-02-16T09:02:28.569Z,7.57
2019-02-16T09:05:11.659Z,9.43
2019-02-16T09:07:54.372Z,8.30
2019-02-16T09:10:37.017Z,9.13
2019-02-16T09:13:22.655Z,11.97
2019-02-16T09:16:07.415Z,10.80
2019-02-16T09:18:49.720Z,11.00
2019-02-16T09:24:45.887Z,9.30
2019-02-16T09:31:01.354Z,10.67
2019-02-16T09:33:49.227Z,17.73
2019-02-16T09:36:56.338Z,10.77
2019-02-16T09:40:03.578Z,13.93
2019-02-16T09:45:47.146Z,13.10
2019-02-16T09:51:53.473Z,12.57
2019-02-16T09:54:37.641Z,13.30
2019-02-16T09:57:18.997Z,13.43
2019-02-16T10:00:04.428Z,14.60
2019-02-16T10:02:49.958Z,16.80
2019-02-16T10:05:34.540Z,16.43
2019-02-16T10:08:33.965Z,18.07
2019-02-16T10:11:16.145Z,16.30
2019-02-16T10:14:02.031Z,14.53
2019-02-16T10:16:47.208Z,12.27
2019-02-16T10:19:30.443Z,13.93
2019-02-16T10:25:03.861Z,13.93
2019-02-16T10:27:48.644Z,13.47
2019-02-16T10:30:30.579Z,15.23
2019-02-16T10:36:21.572Z,13.40
2019-02-16T10:42:09.126Z,14.33
2019-02-16T10:45:09.505Z,14.07
2019-02-16T10:47:51.579Z,31.33
2019-02-16T10:50:36.076Z,15.43
2019-02-16T10:53:35.612Z,16.40
2019-02-16T10:59:28.690Z,16.93
2019-02-16T11:02:32.370Z,14.87
2019-02-16T11:14:01.219Z,17.33
2019-02-16T11:17:06.562Z,17.90
2019-02-16T11:20:15.741Z,18.40
2019-02-16T11:23:22.903Z,17.10
2019-02-16T11:26:30.225Z,17.50
2019-02-16T11:29:30.744Z,18.90
2019-02-16T11:37:55.979Z,20.93
2019-02-16T11:46:43.864Z,21.77
2019-02-16T11:49:26.606Z,19.47
2019-02-16T11:52:26.831Z,22.73
2019-02-16T11:55:27.614Z,19.70
2019-02-16T11:58:12.890Z,20.57
2019-02-16T12:00:57.741Z,22.00
2019-02-16T12:03:40.037Z,8.63
2019-02-16T12:06:43.264Z,21.70
2019-02-16T12:09:44.788Z,23.30
2019-02-16T12:15:18.909Z,22.57
2019-02-16T12:21:11.466Z,19.90
2019-02-16T12:23:54.360Z,21.37
2019-02-16T12:26:39.647Z,22.47
2019-02-16T12:29:27.497Z,20.20
2019-02-16T12:32:54.084Z,18.13
2019-02-16T12:35:42.584Z,20.33
2019-02-16T12:38:27.574Z,17.07
2019-02-16T12:41:30.349Z,20.50
2019-02-16T12:47:34.910Z,19.77
2019-02-16T12:53:29.388Z,18.90
2019-02-16T12:56:13.959Z,18.03
2019-02-16T13:02:03.389Z,19.30
2019-02-16T13:05:03.392Z,19.47
2019-02-16T13:08:05.059Z,21.23
2019-02-16T13:10:52.850Z,19.20
2019-02-16T13:16:59.031Z,19.07
2019-02-16T13:20:03.655Z,21.23
2019-02-16T13:23:10.613Z,17.70
2019-02-16T13:26:17.579Z,18.00
2019-02-16T13:29:24.764Z,13.93
2019-02-16T13:32:31.753Z,19.43
2019-02-16T13:35:19.362Z,17.40
2019-02-16T13:38:26.316Z,16.47
2019-02-16T13:44:32.284Z,17.50
2019-02-16T13:47:32.009Z,16.43
2019-02-16T13:50:31.741Z,14.87
2019-02-16T13:53:31.688Z,16.33
2019-02-16T13:56:19.417Z,17.47
2019-02-16T14:05:24.557Z,15.47
2019-02-16T14:11:40.027Z,16.67
2019-02-16T14:14:47.018Z,17.23
2019-02-16T14:17:54.216Z,14.57
2019-02-16T14:20:42.014Z,16.47
2019-02-16T14:23:29.788Z,15.37
2019-02-16T14:26:17.597Z,17.73
2019-02-16T14:29:05.458Z,14.27
2019-02-16T14:31:53.226Z,19.00
2019-02-16T14:34:41.003Z,18.57
2019-02-16T14:37:47.971Z,19.37
2019-02-16T14:40:36.105Z,15.60
2019-02-16T14:43:23.893Z,19.30
2019-02-16T14:46:11.628Z,17.77
2019-02-16T14:48:52.277Z,17.47
2019-02-16T14:51:32.913Z,18.47
2019-02-16T14:54:01.343Z,18.50
2019-02-16T14:56:29.751Z,19.33
2019-02-16T14:59:17.534Z,18.67
2019-02-16T15:02:05.295Z,18.80
2019-02-16T15:04:53.060Z,15.57
2019-02-16T15:07:40.804Z,17.87
2019-02-16T15:10:28.581Z,17.97
2019-02-16T15:13:16.329Z,19.73
2019-02-16T15:16:04.389Z,17.30
2019-02-16T15:18:52.141Z,60.23
2019-02-16T15:21:39.921Z,20.90
2019-02-16T15:24:27.704Z,30.23
2019-02-16T15:27:15.465Z,20.17
2019-02-16T15:30:03.241Z,17.07
2019-02-16T15:32:51.000Z,20.73
2019-02-16T15:35:38.772Z,23.60
2019-02-16T15:38:26.576Z,20.63
2019-02-16T15:41:14.396Z,15.07
2019-02-16T15:44:02.168Z,16.60
2019-02-16T15:46:50.384Z,21.40
2019-02-16T15:49:31.268Z,15.87
2019-02-16T15:52:11.696Z,19.53
2019-02-16T15:54:52.319Z,16.10
2019-02-16T15:57:33.206Z,18.77
2019-02-16T16:00:15.238Z,17.87
2019-02-16T16:02:56.546Z,18.00
2019-02-16T16:05:37.435Z,22.07
2019-02-16T16:08:20.205Z,23.50
2019-02-16T16:11:05.716Z,20.83
2019-02-16T16:14:06.631Z,22.90
2019-02-16T16:16:48.709Z,20.93
2019-02-16T16:19:31.132Z,18.80
2019-02-16T16:22:31.454Z,27.87
2019-02-16T16:25:13.230Z,20.37
2019-02-16T16:27:55.471Z,28.27
2019-02-16T16:30:40.551Z,25.97
2019-02-16T16:33:40.551Z,21.87
2019-02-16T16:36:40.296Z,22.10
2019-02-16T16:39:22.847Z,22.03
2019-02-16T16:48:10.069Z,20.57
2019-02-16T16:50:52.508Z,18.83
2019-02-16T16:53:34.936Z,20.43
2019-02-16T16:56:28.426Z,19.00
2019-02-16T16:59:21.925Z,19.93
2019-02-16T17:04:58.356Z,23.17
2019-02-16T17:07:43.928Z,20.93
2019-02-16T17:10:25.820Z,20.57
2019-02-16T17:16:32.584Z,23.70
2019-02-16T17:19:14.586Z,20.87
2019-02-16T17:22:14.076Z,21.90
2019-02-16T17:27:50.000Z,19.93
2019-02-16T17:30:50.037Z,25.43
2019-02-16T17:33:49.613Z,20.30
2019-02-16T17:39:41.824Z,19.80
2019-02-16T17:42:24.577Z,21.77
2019-02-16T17:45:24.305Z,21.13
2019-02-16T17:48:24.377Z,19.80
2019-02-16T17:51:06.528Z,21.60
2019-02-16T17:54:08.752Z,21.90
2019-02-16T17:59:47.700Z,21.27
2019-02-16T18:02:47.694Z,17.93
2019-02-16T18:05:47.124Z,21.13
2019-02-16T18:08:46.597Z,21.03
2019-02-16T18:11:31.993Z,22.10
2019-02-16T18:14:31.413Z,20.30
2019-02-16T18:17:14.036Z,19.07
2019-02-16T18:19:59.537Z,27.43
2019-02-16T18:22:59.772Z,26.33
2019-02-16T18:25:59.869Z,22.00
2019-02-16T18:29:00.185Z,22.20
2019-02-16T18:31:42.113Z,23.50
2019-02-16T18:34:42.037Z,21.40
2019-02-16T18:37:24.216Z,21.57
2019-02-16T18:40:24.434Z,19.30
2019-02-16T18:46:18.249Z,25.10
2019-02-16T18:49:18.406Z,32.50
2019-02-16T18:55:25.938Z,23.57
2019-02-16T18:58:07.750Z,20.83
2019-02-16T19:04:02.050Z,26.97
2019-02-16T19:06:44.381Z,29.47
2019-02-16T19:09:44.898Z,25.23
2019-02-16T19:12:27.221Z,29.70
2019-02-16T19:15:12.340Z,30.80
2019-02-16T19:18:12.541Z,29.20
2019-02-16T19:21:12.159Z,33.87
2019-02-16T19:23:56.781Z,28.80
2019-02-16T19:26:41.452Z,41.20
2019-02-16T19:29:23.783Z,34.70
2019-02-16T19:32:06.318Z,31.07
2019-02-16T19:34:51.029Z,23.77
2019-02-16T19:37:33.032Z,24.93
2019-02-16T19:40:15.242Z,26.83
2019-02-16T19:42:57.766Z,40.47
2019-02-16T19:45:42.961Z,43.33
2019-02-16T19:48:43.331Z,27.10
2019-02-16T19:54:19.156Z,48.83
2019-02-16T19:57:01.061Z,37.13
2019-02-16T19:59:48.933Z,29.10
2019-02-16T20:02:55.892Z,24.43
2019-02-16T20:06:02.846Z,24.60
2019-02-16T20:12:04.743Z,27.87
2019-02-16T20:21:19.097Z,24.10
2019-02-16T20:24:26.273Z,30.50
2019-02-16T20:30:28.273Z,27.60
2019-02-16T20:33:35.219Z,28.40
2019-02-16T20:36:42.189Z,25.37
2019-02-16T20:39:49.156Z,28.20
2019-02-16T20:42:56.101Z,28.57
2019-02-16T20:48:50.762Z,24.23
2019-02-16T20:51:32.938Z,22.60
2019-02-16T20:54:18.784Z,25.23
2019-02-16T21:00:25.645Z,25.77
2019-02-16T21:03:07.689Z,28.27
2019-02-16T21:06:08.017Z,26.40
2019-02-16T21:09:07.773Z,30.13
2019-02-16T21:20:39.216Z,28.90
2019-02-16T21:23:46.248Z,26.73
2019-02-16T21:26:53.224Z,28.90
2019-02-16T21:30:00.474Z,31.23
2019-02-16T21:36:15.957Z,27.10
2019-02-16T21:39:24.552Z,34.90
2019-02-16T21:42:31.529Z,27.03
2019-02-16T21:45:38.498Z,29.60
2019-02-16T21:48:45.469Z,28.33
2019-02-16T21:51:27.789Z,27.37
2019-02-16T21:57:20.658Z,24.10
2019-02-16T22:00:03.128Z,29.13
2019-02-16T22:02:48.520Z,39.27
2019-02-16T22:05:30.363Z,28.67
2019-02-16T22:08:15.006Z,30.23
2019-02-16T22:11:00.432Z,24.17
2019-02-16T22:13:41.229Z,30.70
2019-02-16T22:16:22.410Z,27.43
2019-02-16T22:19:03.418Z,26.47
2019-02-16T22:21:44.156Z,31.53
2019-02-16T22:24:24.850Z,26.73
2019-02-16T22:27:05.515Z,25.77
2019-02-16T22:29:46.579Z,29.10
2019-02-16T22:32:27.477Z,25.87
2019-02-16T22:35:08.157Z,29.43
2019-02-16T22:37:49.061Z,24.63
2019-02-16T22:40:29.639Z,28.07
2019-02-16T22:43:10.374Z,25.47
2019-02-16T22:45:51.658Z,23.23
2019-02-16T22:48:32.056Z,27.40
2019-02-16T22:51:13.106Z,22.73
2019-02-16T22:53:53.741Z,25.90
2019-02-16T22:56:34.620Z,25.63
2019-02-16T22:59:15.133Z,23.10
2019-02-16T23:01:55.752Z,26.53
2019-02-16T23:04:36.648Z,26.83
2019-02-16T23:07:17.680Z,28.67
2019-02-16T23:09:58.546Z,29.40
2019-02-16T23:12:39.173Z,26.43
2019-02-16T23:15:19.969Z,28.63
2019-02-16T23:18:00.592Z,25.80
2019-02-16T23:20:41.515Z,26.43
2019-02-16T23:23:22.064Z,28.80
2019-02-16T23:26:02.935Z,26.80
2019-02-16T23:28:43.729Z,28.57
2019-02-16T23:31:24.312Z,26.90
2019-02-16T23:34:05.085Z,26.17
2019-02-16T23:36:46.299Z,26.17
2019-02-16T23:39:26.870Z,26.87
2019-02-16T23:42:07.405Z,28.03
2019-02-16T23:44:48.543Z,24.53
2019-02-16T23:47:29.343Z,25.47
2019-02-16T23:50:10.189Z,26.20
2019-02-16T23:52:51.094Z,27.40
2019-02-16T23:55:31.977Z,26.47
2019-02-16T23:58:12.331Z,27.47
